English, Indiana
Current Conditions -  °F | °C
As of 4:35 AM on Friday 28 Nov 2014 (Local Time) from KHNB Reporting Station
Broken Clouds Broken Clouds  
Wind Chill: -4°   Ceiling: 9500
Heat Index: -4°   Visibility: 10mi
Dew Point: -8°   Wind: 3mph
Humidity: 74%   Direction: 230°SW
Pressure: 30.44"   Gusts: NA
Location:  38.33°N, 86.46°W
Report Text: KHNB 280935Z AUTO 23003KT 10SM BKN095 M04/M08 A3044 RMK AO1
Loading
Personal Weather Stations






























Interactive Weather Map New forecast layout! Learn more

10-Day Weather Forecast

Advertisements
Track Severe Weather on mobile